sensor_id;sensor_type;location;lat;lon;timestamp;P1;durP1;ratioP1;P2;durP2;ratioP2
30472;SDS011;17263;48.160;11.452;2024-01-07T00:01:29;12.90;;;10.83;;
30472;SDS011;17263;48.160;11.452;2024-01-07T00:03:55;12.80;;;11.17;;
30472;SDS011;17263;48.160;11.452;2024-01-07T00:06:21;12.47;;;11.00;;
30472;SDS011;17263;48.160;11.452;2024-01-07T00:08:48;13.00;;;11.40;;
30472;SDS011;17263;48.160;11.452;2024-01-07T00:11:14;12.93;;;10.80;;
30472;SDS011;17263;48.160;11.452;2024-01-07T00:13:40;13.33;;;11.93;;
30472;SDS011;17263;48.160;11.452;2024-01-07T00:16:06;12.57;;;10.57;;
30472;SDS011;17263;48.160;11.452;2024-01-07T00:18:33;13.33;;;11.37;;
30472;SDS011;17263;48.160;11.452;2024-01-07T00:20:59;13.93;;;12.20;;
30472;SDS011;17263;48.160;11.452;2024-01-07T00:23:25;14.60;;;12.03;;
30472;SDS011;17263;48.160;11.452;2024-01-07T00:25:51;13.70;;;12.30;;
30472;SDS011;17263;48.160;11.452;2024-01-07T00:28:17;14.47;;;11.77;;
30472;SDS011;17263;48.160;11.452;2024-01-07T00:30:44;13.33;;;11.53;;
30472;SDS011;17263;48.160;11.452;2024-01-07T00:33:10;14.07;;;12.57;;
30472;SDS011;17263;48.160;11.452;2024-01-07T00:35:36;13.07;;;11.67;;
30472;SDS011;17263;48.160;11.452;2024-01-07T00:38:02;13.70;;;12.30;;
30472;SDS011;17263;48.160;11.452;2024-01-07T00:40:29;13.60;;;12.20;;
30472;SDS011;17263;48.160;11.452;2024-01-07T00:42:55;13.53;;;12.10;;
30472;SDS011;17263;48.160;11.452;2024-01-07T00:45:21;13.97;;;12.03;;
30472;SDS011;17263;48.160;11.452;2024-01-07T00:47:47;12.87;;;11.43;;
30472;SDS011;17263;48.160;11.452;2024-01-07T00:50:13;13.73;;;12.20;;
30472;SDS011;17263;48.160;11.452;2024-01-07T00:52:41;13.67;;;12.27;;
30472;SDS011;17263;48.160;11.452;2024-01-07T00:55:08;13.33;;;11.93;;
30472;SDS011;17263;48.160;11.452;2024-01-07T00:57:34;12.57;;;11.27;;
30472;SDS011;17263;48.160;11.452;2024-01-07T01:00:04;11.97;;;10.53;;
30472;SDS011;17263;48.160;11.452;2024-01-07T01:02:31;14.53;;;11.93;;
30472;SDS011;17263;48.160;11.452;2024-01-07T01:04:57;13.00;;;11.60;;
30472;SDS011;17263;48.160;11.452;2024-01-07T01:07:23;14.03;;;11.87;;
30472;SDS011;17263;48.160;11.452;2024-01-07T01:09:49;14.03;;;12.20;;
30472;SDS011;17263;48.160;11.452;2024-01-07T01:12:15;12.57;;;11.27;;
30472;SDS011;17263;48.160;11.452;2024-01-07T01:14:41;16.67;;;14.33;;
30472;SDS011;17263;48.160;11.452;2024-01-07T01:17:07;42.10;;;31.57;;
30472;SDS011;17263;48.160;11.452;2024-01-07T01:19:33;23.70;;;19.67;;
30472;SDS011;17263;48.160;11.452;2024-01-07T01:21:59;16.23;;;14.07;;
30472;SDS011;17263;48.160;11.452;2024-01-07T01:24:25;13.97;;;12.50;;
30472;SDS011;17263;48.160;11.452;2024-01-07T01:26:51;13.87;;;12.47;;
30472;SDS011;17263;48.160;11.452;2024-01-07T01:29:17;14.03;;;11.77;;
30472;SDS011;17263;48.160;11.452;2024-01-07T01:31:43;13.53;;;12.13;;
30472;SDS011;17263;48.160;11.452;2024-01-07T01:34:09;12.50;;;11.30;;
30472;SDS011;17263;48.160;11.452;2024-01-07T01:36:35;12.47;;;11.17;;
30472;SDS011;17263;48.160;11.452;2024-01-07T01:39:01;13.83;;;12.20;;
30472;SDS011;17263;48.160;11.452;2024-01-07T01:41:27;13.10;;;11.80;;
30472;SDS011;17263;48.160;11.452;2024-01-07T01:43:57;13.77;;;11.63;;
30472;SDS011;17263;48.160;11.452;2024-01-07T01:46:24;12.43;;;11.13;;
30472;SDS011;17263;48.160;11.452;2024-01-07T01:48:50;13.03;;;11.73;;
30472;SDS011;17263;48.160;11.452;2024-01-07T01:51:17;13.50;;;12.10;;
30472;SDS011;17263;48.160;11.452;2024-01-07T01:53:44;12.77;;;11.47;;
30472;SDS011;17263;48.160;11.452;2024-01-07T01:56:11;12.97;;;11.67;;
30472;SDS011;17263;48.160;11.452;2024-01-07T01:58:37;13.47;;;12.07;;
30472;SDS011;17263;48.160;11.452;2024-01-07T02:01:03;12.77;;;11.47;;
30472;SDS011;17263;48.160;11.452;2024-01-07T02:03:29;13.23;;;11.77;;
30472;SDS011;17263;48.160;11.452;2024-01-07T02:05:58;12.60;;;11.33;;
30472;SDS011;17263;48.160;11.452;2024-01-07T02:08:25;12.50;;;11.30;;
30472;SDS011;17263;48.160;11.452;2024-01-07T02:10:51;17.83;;;14.63;;
30472;SDS011;17263;48.160;11.452;2024-01-07T02:13:17;22.80;;;18.67;;
30472;SDS011;17263;48.160;11.452;2024-01-07T02:15:43;17.40;;;14.93;;
30472;SDS011;17263;48.160;11.452;2024-01-07T02:18:09;13.87;;;12.33;;
30472;SDS011;17263;48.160;11.452;2024-01-07T02:20:35;12.80;;;11.37;;
30472;SDS011;17263;48.160;11.452;2024-01-07T02:23:02;12.20;;;10.93;;
30472;SDS011;17263;48.160;11.452;2024-01-07T02:25:29;11.63;;;10.43;;
30472;SDS011;17263;48.160;11.452;2024-01-07T02:27:59;11.90;;;10.70;;
30472;SDS011;17263;48.160;11.452;2024-01-07T02:30:25;12.03;;;10.83;;
30472;SDS011;17263;48.160;11.452;2024-01-07T02:32:52;12.60;;;11.30;;
30472;SDS011;17263;48.160;11.452;2024-01-07T02:35:18;11.33;;;10.23;;
30472;SDS011;17263;48.160;11.452;2024-01-07T02:37:44;11.70;;;10.53;;
30472;SDS011;17263;48.160;11.452;2024-01-07T02:40:10;11.93;;;10.77;;
30472;SDS011;17263;48.160;11.452;2024-01-07T02:42:36;11.87;;;10.70;;
30472;SDS011;17263;48.160;11.452;2024-01-07T02:45:03;11.63;;;10.53;;
30472;SDS011;17263;48.160;11.452;2024-01-07T02:47:29;11.37;;;10.27;;
30472;SDS011;17263;48.160;11.452;2024-01-07T02:49:55;11.23;;;10.13;;
30472;SDS011;17263;48.160;11.452;2024-01-07T02:52:21;11.87;;;10.67;;
30472;SDS011;17263;48.160;11.452;2024-01-07T02:54:47;9.97;;;8.97;;
30472;SDS011;17263;48.160;11.452;2024-01-07T02:57:13;10.63;;;9.63;;
30472;SDS011;17263;48.160;11.452;2024-01-07T02:59:40;11.40;;;10.27;;
30472;SDS011;17263;48.160;11.452;2024-01-07T03:02:06;11.27;;;10.20;;
30472;SDS011;17263;48.160;11.452;2024-01-07T03:04:32;13.00;;;11.70;;
30472;SDS011;17263;48.160;11.452;2024-01-07T03:06:58;19.80;;;16.77;;
30472;SDS011;17263;48.160;11.452;2024-01-07T03:09:24;16.17;;;14.47;;
30472;SDS011;17263;48.160;11.452;2024-01-07T03:11:50;12.00;;;10.80;;
30472;SDS011;17263;48.160;11.452;2024-01-07T03:14:16;11.70;;;10.53;;
30472;SDS011;17263;48.160;11.452;2024-01-07T03:16:45;10.77;;;9.73;;
30472;SDS011;17263;48.160;11.452;2024-01-07T03:19:11;11.67;;;10.57;;
30472;SDS011;17263;48.160;11.452;2024-01-07T03:21:37;12.03;;;10.83;;
30472;SDS011;17263;48.160;11.452;2024-01-07T03:24:03;11.50;;;10.30;;
30472;SDS011;17263;48.160;11.452;2024-01-07T03:26:30;12.10;;;10.90;;
30472;SDS011;17263;48.160;11.452;2024-01-07T03:28:59;12.40;;;11.10;;
30472;SDS011;17263;48.160;11.452;2024-01-07T03:31:27;11.63;;;10.53;;
30472;SDS011;17263;48.160;11.452;2024-01-07T03:33:53;11.20;;;10.10;;
30472;SDS011;17263;48.160;11.452;2024-01-07T03:36:19;10.43;;;9.43;;
30472;SDS011;17263;48.160;11.452;2024-01-07T03:38:45;10.67;;;9.63;;
30472;SDS011;17263;48.160;11.452;2024-01-07T03:41:18;12.30;;;11.00;;
30472;SDS011;17263;48.160;11.452;2024-01-07T03:43:48;11.33;;;10.13;;
30472;SDS011;17263;48.160;11.452;2024-01-07T03:46:15;11.30;;;10.20;;
30472;SDS011;17263;48.160;11.452;2024-01-07T03:48:42;11.80;;;10.60;;
30472;SDS011;17263;48.160;11.452;2024-01-07T03:51:08;11.97;;;10.77;;
30472;SDS011;17263;48.160;11.452;2024-01-07T03:53:34;11.67;;;10.47;;
30472;SDS011;17263;48.160;11.452;2024-01-07T03:56:00;11.63;;;10.43;;
30472;SDS011;17263;48.160;11.452;2024-01-07T03:58:26;14.33;;;12.83;;
30472;SDS011;17263;48.160;11.452;2024-01-07T04:00:52;23.37;;;18.57;;
30472;SDS011;17263;48.160;11.452;2024-01-07T04:03:18;15.90;;;13.93;;
30472;SDS011;17263;48.160;11.452;2024-01-07T04:05:45;12.00;;;10.80;;
30472;SDS011;17263;48.160;11.452;2024-01-07T04:08:11;11.10;;;10.00;;
30472;SDS011;17263;48.160;11.452;2024-01-07T04:10:37;10.30;;;9.30;;
30472;SDS011;17263;48.160;11.452;2024-01-07T04:13:04;11.30;;;10.10;;
30472;SDS011;17263;48.160;11.452;2024-01-07T04:15:30;11.67;;;10.50;;
30472;SDS011;17263;48.160;11.452;2024-01-07T04:17:56;11.67;;;10.57;;
30472;SDS011;17263;48.160;11.452;2024-01-07T04:20:22;11.10;;;10.00;;
30472;SDS011;17263;48.160;11.452;2024-01-07T04:22:49;11.83;;;10.63;;
30472;SDS011;17263;48.160;11.452;2024-01-07T04:25:15;11.43;;;10.23;;
30472;SDS011;17263;48.160;11.452;2024-01-07T04:27:41;12.10;;;10.83;;
30472;SDS011;17263;48.160;11.452;2024-01-07T04:30:07;11.50;;;10.40;;
30472;SDS011;17263;48.160;11.452;2024-01-07T04:32:33;11.30;;;10.20;;
30472;SDS011;17263;48.160;11.452;2024-01-07T04:34:59;11.33;;;10.30;;
30472;SDS011;17263;48.160;11.452;2024-01-07T04:37:25;11.53;;;10.40;;
30472;SDS011;17263;48.160;11.452;2024-01-07T04:39:51;11.83;;;10.63;;
30472;SDS011;17263;48.160;11.452;2024-01-07T04:42:17;11.60;;;10.43;;
30472;SDS011;17263;48.160;11.452;2024-01-07T04:44:43;12.20;;;10.50;;
30472;SDS011;17263;48.160;11.452;2024-01-07T04:47:25;12.47;;;11.27;;
30472;SDS011;17263;48.160;11.452;2024-01-07T04:50:01;11.87;;;10.77;;
30472;SDS011;17263;48.160;11.452;2024-01-07T04:52:28;12.97;;;11.57;;
30472;SDS011;17263;48.160;11.452;2024-01-07T04:54:55;12.67;;;11.37;;
30472;SDS011;17263;48.160;11.452;2024-01-07T04:57:21;12.90;;;11.60;;
30472;SDS011;17263;48.160;11.452;2024-01-07T04:59:48;12.43;;;11.23;;
30472;SDS011;17263;48.160;11.452;2024-01-07T05:02:15;12.77;;;11.47;;
30472;SDS011;17263;48.160;11.452;2024-01-07T05:04:41;13.07;;;11.67;;
30472;SDS011;17263;48.160;11.452;2024-01-07T05:07:07;11.87;;;10.67;;
30472;SDS011;17263;48.160;11.452;2024-01-07T05:09:33;12.57;;;10.83;;
30472;SDS011;17263;48.160;11.452;2024-01-07T05:12:00;12.43;;;10.53;;
30472;SDS011;17263;48.160;11.452;2024-01-07T05:14:26;11.70;;;10.60;;
30472;SDS011;17263;48.160;11.452;2024-01-07T05:16:53;12.67;;;11.47;;
30472;SDS011;17263;48.160;11.452;2024-01-07T05:19:22;11.47;;;10.37;;
30472;SDS011;17263;48.160;11.452;2024-01-07T05:21:48;11.83;;;10.63;;
30472;SDS011;17263;48.160;11.452;2024-01-07T05:24:14;11.60;;;10.50;;
30472;SDS011;17263;48.160;11.452;2024-01-07T05:26:41;11.43;;;10.33;;
30472;SDS011;17263;48.160;11.452;2024-01-07T05:29:08;11.47;;;10.17;;
30472;SDS011;17263;48.160;11.452;2024-01-07T05:31:34;11.83;;;10.63;;
30472;SDS011;17263;48.160;11.452;2024-01-07T05:34:00;10.87;;;9.73;;
30472;SDS011;17263;48.160;11.452;2024-01-07T05:36:26;10.23;;;9.23;;
30472;SDS011;17263;48.160;11.452;2024-01-07T05:38:52;11.43;;;10.23;;
30472;SDS011;17263;48.160;11.452;2024-01-07T05:41:18;10.57;;;9.33;;
30472;SDS011;17263;48.160;11.452;2024-01-07T05:43:44;11.27;;;10.17;;
30472;SDS011;17263;48.160;11.452;2024-01-07T05:46:10;10.23;;;9.23;;
30472;SDS011;17263;48.160;11.452;2024-01-07T05:48:41;10.63;;;9.53;;
30472;SDS011;17263;48.160;11.452;2024-01-07T05:51:08;10.50;;;9.50;;
30472;SDS011;17263;48.160;11.452;2024-01-07T05:53:34;9.67;;;8.77;;
30472;SDS011;17263;48.160;11.452;2024-01-07T05:56:00;10.53;;;9.53;;
30472;SDS011;17263;48.160;11.452;2024-01-07T05:58:27;10.40;;;9.40;;
30472;SDS011;17263;48.160;11.452;2024-01-07T06:00:53;10.53;;;9.43;;
30472;SDS011;17263;48.160;11.452;2024-01-07T06:03:19;9.43;;;8.53;;
30472;SDS011;17263;48.160;11.452;2024-01-07T06:05:45;10.20;;;9.13;;
30472;SDS011;17263;48.160;11.452;2024-01-07T06:08:11;10.33;;;9.20;;
30472;SDS011;17263;48.160;11.452;2024-01-07T06:10:38;9.60;;;8.70;;
30472;SDS011;17263;48.160;11.452;2024-01-07T06:13:05;9.93;;;8.90;;
30472;SDS011;17263;48.160;11.452;2024-01-07T06:15:31;9.57;;;8.57;;
30472;SDS011;17263;48.160;11.452;2024-01-07T06:17:57;8.93;;;8.07;;
30472;SDS011;17263;48.160;11.452;2024-01-07T06:20:23;8.93;;;8.03;;
30472;SDS011;17263;48.160;11.452;2024-01-07T06:22:49;8.80;;;7.90;;
30472;SDS011;17263;48.160;11.452;2024-01-07T06:25:16;8.73;;;7.83;;
30472;SDS011;17263;48.160;11.452;2024-01-07T06:27:42;8.80;;;7.90;;
30472;SDS011;17263;48.160;11.452;2024-01-07T06:30:08;8.33;;;7.53;;
30472;SDS011;17263;48.160;11.452;2024-01-07T06:32:34;8.27;;;7.37;;
30472;SDS011;17263;48.160;11.452;2024-01-07T06:35:01;8.77;;;7.87;;
30472;SDS011;17263;48.160;11.452;2024-01-07T06:37:28;8.10;;;7.07;;
30472;SDS011;17263;48.160;11.452;2024-01-07T06:39:55;7.67;;;6.90;;
30472;SDS011;17263;48.160;11.452;2024-01-07T06:42:22;8.50;;;7.60;;
30472;SDS011;17263;48.160;11.452;2024-01-07T06:44:48;8.40;;;7.50;;
30472;SDS011;17263;48.160;11.452;2024-01-07T06:47:14;8.17;;;7.20;;
30472;SDS011;17263;48.160;11.452;2024-01-07T06:49:41;8.43;;;7.53;;
30472;SDS011;17263;48.160;11.452;2024-01-07T06:52:07;8.03;;;7.27;;
30472;SDS011;17263;48.160;11.452;2024-01-07T06:54:33;8.73;;;7.83;;
30472;SDS011;17263;48.160;11.452;2024-01-07T06:56:59;8.27;;;7.37;;
30472;SDS011;17263;48.160;11.452;2024-01-07T06:59:25;8.67;;;7.87;;
30472;SDS011;17263;48.160;11.452;2024-01-07T07:01:51;9.83;;;8.03;;
30472;SDS011;17263;48.160;11.452;2024-01-07T07:04:19;9.17;;;7.80;;
30472;SDS011;17263;48.160;11.452;2024-01-07T07:06:45;8.97;;;7.90;;
30472;SDS011;17263;48.160;11.452;2024-01-07T07:09:12;8.27;;;7.47;;
30472;SDS011;17263;48.160;11.452;2024-01-07T07:11:40;8.20;;;7.40;;
30472;SDS011;17263;48.160;11.452;2024-01-07T07:14:06;8.33;;;7.17;;
30472;SDS011;17263;48.160;11.452;2024-01-07T07:16:32;9.00;;;7.50;;
30472;SDS011;17263;48.160;11.452;2024-01-07T07:18:58;8.17;;;7.37;;
30472;SDS011;17263;48.160;11.452;2024-01-07T07:21:24;8.03;;;7.23;;
30472;SDS011;17263;48.160;11.452;2024-01-07T07:23:52;9.03;;;8.13;;
30472;SDS011;17263;48.160;11.452;2024-01-07T07:26:18;8.90;;;8.00;;
30472;SDS011;17263;48.160;11.452;2024-01-07T07:28:44;9.77;;;7.37;;
30472;SDS011;17263;48.160;11.452;2024-01-07T07:31:11;8.77;;;7.90;;
30472;SDS011;17263;48.160;11.452;2024-01-07T07:33:41;8.93;;;7.90;;
30472;SDS011;17263;48.160;11.452;2024-01-07T07:36:07;8.80;;;7.93;;
30472;SDS011;17263;48.160;11.452;2024-01-07T07:38:33;9.77;;;8.33;;
30472;SDS011;17263;48.160;11.452;2024-01-07T07:40:59;9.70;;;8.27;;
30472;SDS011;17263;48.160;11.452;2024-01-07T07:43:26;9.73;;;8.73;;
30472;SDS011;17263;48.160;11.452;2024-01-07T07:45:52;9.70;;;8.70;;
30472;SDS011;17263;48.160;11.452;2024-01-07T07:48:18;10.27;;;7.70;;
30472;SDS011;17263;48.160;11.452;2024-01-07T07:50:44;8.93;;;8.00;;
30472;SDS011;17263;48.160;11.452;2024-01-07T07:53:10;9.07;;;8.17;;
30472;SDS011;17263;48.160;11.452;2024-01-07T07:55:36;10.67;;;8.90;;
30472;SDS011;17263;48.160;11.452;2024-01-07T07:58:02;9.20;;;8.27;;
30472;SDS011;17263;48.160;11.452;2024-01-07T08:00:29;10.53;;;8.23;;
30472;SDS011;17263;48.160;11.452;2024-01-07T08:02:55;8.33;;;7.53;;
30472;SDS011;17263;48.160;11.452;2024-01-07T08:05:21;10.40;;;9.23;;
30472;SDS011;17263;48.160;11.452;2024-01-07T08:07:47;9.63;;;8.63;;
30472;SDS011;17263;48.160;11.452;2024-01-07T08:10:13;10.37;;;8.20;;
30472;SDS011;17263;48.160;11.452;2024-01-07T08:12:39;9.33;;;8.20;;
30472;SDS011;17263;48.160;11.452;2024-01-07T08:15:05;9.67;;;8.47;;
30472;SDS011;17263;48.160;11.452;2024-01-07T08:17:31;10.77;;;9.13;;
30472;SDS011;17263;48.160;11.452;2024-01-07T08:19:57;10.60;;;8.37;;
30472;SDS011;17263;48.160;11.452;2024-01-07T08:22:23;9.20;;;7.77;;
30472;SDS011;17263;48.160;11.452;2024-01-07T08:24:49;9.43;;;8.37;;
30472;SDS011;17263;48.160;11.452;2024-01-07T08:27:16;9.60;;;8.30;;
30472;SDS011;17263;48.160;11.452;2024-01-07T08:29:42;10.67;;;8.40;;
30472;SDS011;17263;48.160;11.452;2024-01-07T08:32:09;8.90;;;7.93;;
30472;SDS011;17263;48.160;11.452;2024-01-07T08:34:35;11.53;;;9.17;;
30472;SDS011;17263;48.160;11.452;2024-01-07T08:37:01;10.50;;;8.60;;
30472;SDS011;17263;48.160;11.452;2024-01-07T08:39:27;9.57;;;8.53;;
30472;SDS011;17263;48.160;11.452;2024-01-07T08:41:54;9.10;;;8.10;;
30472;SDS011;17263;48.160;11.452;2024-01-07T08:44:20;10.83;;;8.53;;
30472;SDS011;17263;48.160;11.452;2024-01-07T08:46:46;10.57;;;8.40;;
30472;SDS011;17263;48.160;11.452;2024-01-07T08:49:12;10.20;;;9.20;;
30472;SDS011;17263;48.160;11.452;2024-01-07T08:51:39;9.43;;;8.43;;
30472;SDS011;17263;48.160;11.452;2024-01-07T08:54:05;12.03;;;8.93;;
30472;SDS011;17263;48.160;11.452;2024-01-07T08:56:31;12.27;;;9.97;;
30472;SDS011;17263;48.160;11.452;2024-01-07T08:58:57;11.53;;;9.30;;
30472;SDS011;17263;48.160;11.452;2024-01-07T09:01:24;13.17;;;9.97;;
30472;SDS011;17263;48.160;11.452;2024-01-07T09:03:50;12.10;;;9.97;;
30472;SDS011;17263;48.160;11.452;2024-01-07T09:06:16;11.93;;;10.07;;
30472;SDS011;17263;48.160;11.452;2024-01-07T09:08:42;13.17;;;9.40;;
30472;SDS011;17263;48.160;11.452;2024-01-07T09:11:08;13.50;;;10.40;;
30472;SDS011;17263;48.160;11.452;2024-01-07T09:13:36;11.97;;;9.80;;
30472;SDS011;17263;48.160;11.452;2024-01-07T09:16:03;13.83;;;10.73;;
30472;SDS011;17263;48.160;11.452;2024-01-07T09:18:29;12.60;;;10.20;;
30472;SDS011;17263;48.160;11.452;2024-01-07T09:20:56;13.43;;;11.07;;
30472;SDS011;17263;48.160;11.452;2024-01-07T09:23:22;12.83;;;10.80;;
30472;SDS011;17263;48.160;11.452;2024-01-07T09:25:48;15.27;;;11.80;;
30472;SDS011;17263;48.160;11.452;2024-01-07T09:28:14;13.67;;;11.30;;
30472;SDS011;17263;48.160;11.452;2024-01-07T09:30:40;12.83;;;10.53;;
30472;SDS011;17263;48.160;11.452;2024-01-07T09:33:06;13.37;;;11.17;;
30472;SDS011;17263;48.160;11.452;2024-01-07T09:35:32;13.80;;;10.70;;
30472;SDS011;17263;48.160;11.452;2024-01-07T09:37:59;12.23;;;10.73;;
30472;SDS011;17263;48.160;11.452;2024-01-07T09:40:25;12.30;;;10.57;;
30472;SDS011;17263;48.160;11.452;2024-01-07T09:42:51;13.33;;;10.90;;
30472;SDS011;17263;48.160;11.452;2024-01-07T09:45:17;13.20;;;10.60;;
30472;SDS011;17263;48.160;11.452;2024-01-07T09:47:44;12.30;;;10.13;;
30472;SDS011;17263;48.160;11.452;2024-01-07T09:50:11;12.63;;;10.67;;
30472;SDS011;17263;48.160;11.452;2024-01-07T09:52:38;11.63;;;10.20;;
30472;SDS011;17263;48.160;11.452;2024-01-07T09:55:08;12.63;;;10.33;;
30472;SDS011;17263;48.160;11.452;2024-01-07T09:57:39;11.00;;;9.90;;
30472;SDS011;17263;48.160;11.452;2024-01-07T10:00:09;12.27;;;10.43;;
30472;SDS011;17263;48.160;11.452;2024-01-07T10:02:37;13.53;;;10.33;;
30472;SDS011;17263;48.160;11.452;2024-01-07T10:05:06;15.30;;;10.43;;
30472;SDS011;17263;48.160;11.452;2024-01-07T10:07:32;14.30;;;10.23;;
30472;SDS011;17263;48.160;11.452;2024-01-07T10:10:09;13.97;;;10.10;;
30472;SDS011;17263;48.160;11.452;2024-01-07T10:12:37;13.53;;;10.30;;
30472;SDS011;17263;48.160;11.452;2024-01-07T10:15:03;13.30;;;10.20;;
30472;SDS011;17263;48.160;11.452;2024-01-07T10:17:31;12.50;;;10.10;;
30472;SDS011;17263;48.160;11.452;2024-01-07T10:19:57;13.87;;;10.30;;
30472;SDS011;17263;48.160;11.452;2024-01-07T10:22:23;10.67;;;9.37;;
30472;SDS011;17263;48.160;11.452;2024-01-07T10:24:51;14.23;;;10.60;;
30472;SDS011;17263;48.160;11.452;2024-01-07T10:27:17;12.57;;;10.43;;
30472;SDS011;17263;48.160;11.452;2024-01-07T10:29:43;11.77;;;9.57;;
30472;SDS011;17263;48.160;11.452;2024-01-07T10:32:15;11.50;;;9.77;;
30472;SDS011;17263;48.160;11.452;2024-01-07T10:34:41;11.20;;;9.93;;
30472;SDS011;17263;48.160;11.452;2024-01-07T10:37:12;13.13;;;9.80;;
30472;SDS011;17263;48.160;11.452;2024-01-07T10:39:38;11.20;;;9.43;;
30472;SDS011;17263;48.160;11.452;2024-01-07T10:42:04;12.60;;;9.07;;
30472;SDS011;17263;48.160;11.452;2024-01-07T10:44:32;11.83;;;9.67;;
30472;SDS011;17263;48.160;11.452;2024-01-07T10:46:59;11.87;;;8.90;;
30472;SDS011;17263;48.160;11.452;2024-01-07T10:49:26;9.73;;;8.30;;
30472;SDS011;17263;48.160;11.452;2024-01-07T10:54:29;11.53;;;9.43;;
30472;SDS011;17263;48.160;11.452;2024-01-07T10:56:57;10.17;;;8.83;;
30472;SDS011;17263;48.160;11.452;2024-01-07T10:59:46;10.37;;;8.97;;
30472;SDS011;17263;48.160;11.452;2024-01-07T11:02:15;10.37;;;8.43;;
30472;SDS011;17263;48.160;11.452;2024-01-07T11:04:48;9.07;;;8.13;;
30472;SDS011;17263;48.160;11.452;2024-01-07T11:07:23;9.23;;;7.70;;
30472;SDS011;17263;48.160;11.452;2024-01-07T11:10:34;10.30;;;8.67;;
30472;SDS011;17263;48.160;11.452;2024-01-07T11:12:57;11.07;;;8.47;;
30472;SDS011;17263;48.160;11.452;2024-01-07T11:18:18;11.43;;;8.60;;
30472;SDS011;17263;48.160;11.452;2024-01-07T11:20:48;9.90;;;8.20;;
30472;SDS011;17263;48.160;11.452;2024-01-07T11:26:13;8.83;;;7.93;;
30472;SDS011;17263;48.160;11.452;2024-01-07T11:28:46;11.10;;;9.10;;
30472;SDS011;17263;48.160;11.452;2024-01-07T11:31:16;8.60;;;7.20;;
30472;SDS011;17263;48.160;11.452;2024-01-07T11:33:44;8.30;;;7.40;;
30472;SDS011;17263;48.160;11.452;2024-01-07T11:36:12;8.47;;;7.10;;
30472;SDS011;17263;48.160;11.452;2024-01-07T11:38:43;9.23;;;7.90;;
30472;SDS011;17263;48.160;11.452;2024-01-07T11:41:10;8.50;;;7.20;;
30472;SDS011;17263;48.160;11.452;2024-01-07T11:43:37;9.17;;;7.13;;
30472;SDS011;17263;48.160;11.452;2024-01-07T11:46:03;8.13;;;7.33;;
30472;SDS011;17263;48.160;11.452;2024-01-07T11:48:29;9.67;;;8.13;;
30472;SDS011;17263;48.160;11.452;2024-01-07T11:50:55;8.53;;;7.13;;
30472;SDS011;17263;48.160;11.452;2024-01-07T11:53:22;8.30;;;7.47;;
30472;SDS011;17263;48.160;11.452;2024-01-07T11:55:48;9.80;;;7.80;;
30472;SDS011;17263;48.160;11.452;2024-01-07T11:58:14;8.67;;;7.43;;
30472;SDS011;17263;48.160;11.452;2024-01-07T12:00:40;9.83;;;8.30;;
30472;SDS011;17263;48.160;11.452;2024-01-07T12:03:06;8.70;;;7.80;;
30472;SDS011;17263;48.160;11.452;2024-01-07T12:05:32;9.73;;;8.10;;
30472;SDS011;17263;48.160;11.452;2024-01-07T12:08:00;10.17;;;8.83;;
30472;SDS011;17263;48.160;11.452;2024-01-07T12:10:26;9.03;;;7.47;;
30472;SDS011;17263;48.160;11.452;2024-01-07T12:12:52;10.37;;;7.53;;
30472;SDS011;17263;48.160;11.452;2024-01-07T12:15:19;9.70;;;8.10;;
30472;SDS011;17263;48.160;11.452;2024-01-07T12:17:55;8.70;;;7.80;;
30472;SDS011;17263;48.160;11.452;2024-01-07T12:20:24;9.00;;;7.67;;
30472;SDS011;17263;48.160;11.452;2024-01-07T12:22:51;9.47;;;8.37;;
30472;SDS011;17263;48.160;11.452;2024-01-07T12:25:21;9.03;;;7.20;;
30472;SDS011;17263;48.160;11.452;2024-01-07T12:27:50;9.23;;;7.70;;
30472;SDS011;17263;48.160;11.452;2024-01-07T12:30:20;10.33;;;7.73;;
30472;SDS011;17263;48.160;11.452;2024-01-07T12:32:46;8.50;;;7.00;;
30472;SDS011;17263;48.160;11.452;2024-01-07T12:35:13;9.30;;;7.23;;
30472;SDS011;17263;48.160;11.452;2024-01-07T12:37:39;9.63;;;7.57;;
30472;SDS011;17263;48.160;11.452;2024-01-07T12:40:05;9.53;;;8.10;;
30472;SDS011;17263;48.160;11.452;2024-01-07T12:42:34;8.33;;;7.20;;
30472;SDS011;17263;48.160;11.452;2024-01-07T12:45:00;9.47;;;7.50;;
30472;SDS011;17263;48.160;11.452;2024-01-07T12:47:26;8.87;;;7.47;;
30472;SDS011;17263;48.160;11.452;2024-01-07T12:49:52;8.73;;;7.83;;
30472;SDS011;17263;48.160;11.452;2024-01-07T12:52:18;9.27;;;7.67;;
30472;SDS011;17263;48.160;11.452;2024-01-07T12:54:44;7.87;;;7.07;;
30472;SDS011;17263;48.160;11.452;2024-01-07T12:57:11;9.13;;;7.87;;
30472;SDS011;17263;48.160;11.452;2024-01-07T12:59:37;8.70;;;7.73;;
30472;SDS011;17263;48.160;11.452;2024-01-07T13:02:03;9.87;;;7.70;;
30472;SDS011;17263;48.160;11.452;2024-01-07T13:04:29;8.07;;;7.17;;
30472;SDS011;17263;48.160;11.452;2024-01-07T13:06:55;9.27;;;7.03;;
30472;SDS011;17263;48.160;11.452;2024-01-07T13:09:21;8.27;;;7.37;;
30472;SDS011;17263;48.160;11.452;2024-01-07T13:11:47;8.53;;;7.67;;
30472;SDS011;17263;48.160;11.452;2024-01-07T13:14:13;10.70;;;8.00;;
30472;SDS011;17263;48.160;11.452;2024-01-07T13:16:39;10.53;;;7.97;;
30472;SDS011;17263;48.160;11.452;2024-01-07T13:19:05;9.77;;;8.20;;
30472;SDS011;17263;48.160;11.452;2024-01-07T13:21:31;9.83;;;8.20;;
30472;SDS011;17263;48.160;11.452;2024-01-07T13:23:58;8.40;;;7.50;;
30472;SDS011;17263;48.160;11.452;2024-01-07T13:26:26;9.70;;;7.37;;
30472;SDS011;17263;48.160;11.452;2024-01-07T13:28:52;10.07;;;7.77;;
30472;SDS011;17263;48.160;11.452;2024-01-07T13:31:18;9.47;;;8.40;;
30472;SDS011;17263;48.160;11.452;2024-01-07T13:33:44;9.03;;;8.13;;
30472;SDS011;17263;48.160;11.452;2024-01-07T13:36:12;9.40;;;8.03;;
30472;SDS011;17263;48.160;11.452;2024-01-07T13:38:38;9.10;;;8.20;;
30472;SDS011;17263;48.160;11.452;2024-01-07T13:41:07;8.83;;;7.90;;
30472;SDS011;17263;48.160;11.452;2024-01-07T13:43:34;10.80;;;8.83;;
30472;SDS011;17263;48.160;11.452;2024-01-07T13:46:00;10.23;;;8.40;;
30472;SDS011;17263;48.160;11.452;2024-01-07T13:48:27;10.03;;;8.20;;
30472;SDS011;17263;48.160;11.452;2024-01-07T13:50:54;8.87;;;7.97;;
30472;SDS011;17263;48.160;11.452;2024-01-07T13:53:21;10.03;;;8.60;;
30472;SDS011;17263;48.160;11.452;2024-01-07T13:55:47;11.97;;;9.10;;
30472;SDS011;17263;48.160;11.452;2024-01-07T13:58:13;10.47;;;8.23;;
30472;SDS011;17263;48.160;11.452;2024-01-07T14:00:40;12.00;;;8.93;;
30472;SDS011;17263;48.160;11.452;2024-01-07T14:03:07;10.30;;;8.80;;
30472;SDS011;17263;48.160;11.452;2024-01-07T14:05:33;10.63;;;8.47;;
30472;SDS011;17263;48.160;11.452;2024-01-07T14:07:59;9.43;;;7.43;;
30472;SDS011;17263;48.160;11.452;2024-01-07T14:10:25;9.57;;;8.07;;
30472;SDS011;17263;48.160;11.452;2024-01-07T14:12:51;9.23;;;7.80;;
30472;SDS011;17263;48.160;11.452;2024-01-07T14:15:17;8.93;;;7.77;;
30472;SDS011;17263;48.160;11.452;2024-01-07T14:17:43;9.37;;;7.67;;
30472;SDS011;17263;48.160;11.452;2024-01-07T14:20:09;12.20;;;7.60;;
30472;SDS011;17263;48.160;11.452;2024-01-07T14:22:36;9.50;;;8.13;;
30472;SDS011;17263;48.160;11.452;2024-01-07T14:25:02;9.33;;;8.27;;
30472;SDS011;17263;48.160;11.452;2024-01-07T14:27:29;10.40;;;8.40;;